Time;durP1;ratioP1;P1;durP2;ratioP2;P2;SDS_P1;SDS_P2;PMS_P1;PMS_P2;Temp;Humidity;BMP_temperature;BMP_pressure;BME280_temperature;BME280_humidity;BME280_pressure;Samples;Min_cycle;Max_cycle;Signal;HPM_P1;HPM_P2
2024/01/06 00:00:35;;;;;;;;;;;3.10;99.90;;;2.28;100.00;96775.81;5034928;28;1301;-71
2024/01/06 00:03:02;;;;;;;;;;;3.20;99.90;;;2.39;100.00;96773.03;5036640;28;1424;-70
2024/01/06 00:05:32;;;;;;;;;;;3.20;99.90;;;2.40;100.00;96778.13;5039844;28;1934;-70
2024/01/06 00:07:59;;;;;;;;;;;3.30;99.90;;;2.49;100.00;96782.19;5033745;28;1754;-70
2024/01/06 00:10:26;;;;;;;;;;;3.40;99.90;;;2.54;100.00;96767.56;5021337;28;3963;-69
2024/01/06 00:12:53;;;;;;;;;;;3.40;99.90;;;2.56;100.00;96770.94;5035594;28;1456;-70
2024/01/06 00:15:20;;;;;;;;;;;3.50;99.90;;;2.59;100.00;96764.88;5034530;28;1476;-69
2024/01/06 00:17:47;;;;;;;;;;;3.50;99.90;;;2.63;100.00;96769.06;5016751;28;1448;-70
2024/01/06 00:20:14;;;;;;;;;;;3.50;99.90;;;2.66;100.00;96768.97;5026787;28;1382;-70
2024/01/06 00:22:42;;;;;;;;;;;3.60;99.90;;;2.80;100.00;96771.19;5037950;28;1349;-70
2024/01/06 00:25:09;;;;;;;;;;;3.50;99.90;;;2.76;100.00;96769.59;5037021;28;1976;-70
2024/01/06 00:27:36;;;;;;;;;;;3.60;99.90;;;2.79;100.00;96764.41;5012506;28;2436;-69
2024/01/06 00:30:03;;;;;;;;;;;3.60;99.90;;;2.79;100.00;96759.28;5036594;28;1486;-70
2024/01/06 00:32:30;;;;;;;;;;;3.70;99.90;;;2.69;100.00;96762.06;5039248;28;1436;-69
2024/01/06 00:34:57;;;;;;;;;;;3.70;99.90;;;2.72;100.00;96758.59;5037634;28;1445;-71
2024/01/06 00:37:24;;;;;;;;;;;3.70;99.90;;;2.65;100.00;96760.47;5041235;28;1440;-71
2024/01/06 00:39:51;;;;;;;;;;;3.80;99.90;;;2.77;100.00;96761.03;5041084;28;2124;-70
2024/01/06 00:42:18;;;;;;;;;;;3.70;99.90;;;2.84;100.00;96754.88;5039627;28;2634;-70
2024/01/06 00:44:45;;;;;;;;;;;3.70;99.90;;;2.71;100.00;96760.31;5039202;28;1906;-70
2024/01/06 00:47:12;;;;;;;;;;;3.70;99.90;;;2.69;100.00;96756.94;5037504;28;1405;-71
2024/01/06 00:49:39;;;;;;;;;;;3.70;99.90;;;2.79;100.00;96760.13;5042241;28;1424;-71
2024/01/06 00:52:06;;;;;;;;;;;3.70;99.90;;;2.65;100.00;96757.91;5044986;28;1471;-71
2024/01/06 00:54:33;;;;;;;;;;;3.70;99.90;;;2.59;100.00;96754.63;5043158;28;1404;-70
2024/01/06 00:56:59;;;;;;;;;;;3.70;99.90;;;2.57;100.00;96751.28;5039364;28;1428;-69
2024/01/06 00:59:27;;;;;;;;;;;3.60;99.90;;;2.61;100.00;96758.84;5039637;28;1415;-70
2024/01/06 01:01:54;;;;;;;;;;;3.60;99.90;;;2.71;100.00;96765.44;5041033;28;1373;-70
2024/01/06 01:04:21;;;;;;;;;;;3.60;99.90;;;2.64;100.00;96763.88;5025693;28;1443;-71
2024/01/06 01:06:48;;;;;;;;;;;3.60;99.90;;;2.62;100.00;96765.66;5041394;28;3653;-71
2024/01/06 01:09:15;;;;;;;;;;;3.60;99.90;;;2.76;100.00;96780.69;5040531;28;1507;-71
2024/01/06 01:11:42;;;;;;;;;;;3.60;99.90;;;2.80;100.00;96782.28;5042912;28;2177;-69
2024/01/06 01:14:09;;;;;;;;;;;3.60;99.90;;;2.64;100.00;96780.97;5040655;28;1396;-70
2024/01/06 01:16:36;;;;;;;;;;;3.60;99.90;;;2.66;100.00;96780.06;5042547;28;1381;-69
2024/01/06 01:19:03;;;;;;;;;;;3.60;99.90;;;2.69;100.00;96781.69;5022674;28;1391;-69
2024/01/06 01:21:30;;;;;;;;;;;3.60;99.90;;;2.67;100.00;96783.50;5023199;28;1417;-70
2024/01/06 01:23:57;;;;;;;;;;;3.60;99.90;;;2.57;100.00;96792.25;5045663;28;1462;-70
2024/01/06 01:26:24;;;;;;;;;;;3.60;99.90;;;2.75;100.00;96791.81;5041556;28;2715;-71
2024/01/06 01:28:51;;;;;;;;;;;3.60;99.90;;;2.68;100.00;96801.38;5039683;28;1392;-70
2024/01/06 01:31:18;;;;;;;;;;;3.60;99.90;;;2.74;100.00;96779.91;5044036;28;1472;-71
2024/01/06 01:33:45;;;;;;;;;;;3.60;99.90;;;2.88;100.00;96784.69;5022964;28;1497;-69
2024/01/06 01:36:12;;;;;;;;;;;3.50;99.90;;;2.85;100.00;96792.44;5041096;28;1409;-69
2024/01/06 01:38:39;;;;;;;;;;;3.60;99.90;;;2.81;100.00;96788.28;5039030;28;1463;-70
2024/01/06 01:41:06;;;;;;;;;;;3.50;99.90;;;2.85;100.00;96795.00;5040244;28;2460;-69
2024/01/06 01:43:36;;;;;;;;;;;3.60;99.90;;;2.84;100.00;96801.00;5042807;28;1516;-70
2024/01/06 01:46:03;;;;;;;;;;;3.60;99.90;;;2.83;100.00;96804.44;5026462;28;1971;-70
2024/01/06 01:48:30;;;;;;;;;;;3.60;99.90;;;2.71;100.00;96808.13;5041275;28;1319;-70
2024/01/06 01:50:58;;;;;;;;;;;3.50;99.90;;;2.73;100.00;96804.66;5039131;28;1370;-70
2024/01/06 01:53:26;;;;;;;;;;;3.50;99.90;;;2.72;100.00;96807.28;5041046;28;1682;-71
2024/01/06 01:55:53;;;;;;;;;;;3.50;99.90;;;2.65;100.00;96816.00;5031104;28;3431;-69
2024/01/06 01:58:20;;;;;;;;;;;3.50;99.90;;;2.64;100.00;96814.28;5022433;28;1386;-69
2024/01/06 02:00:47;;;;;;;;;;;3.50;99.90;;;2.59;100.00;96809.28;5040255;28;1530;-71
2024/01/06 02:03:15;;;;;;;;;;;3.50;99.90;;;2.80;100.00;96813.03;5040205;28;1296;-70
2024/01/06 02:05:42;;;;;;;;;;;3.50;99.90;;;2.79;100.00;96816.50;5038015;28;1965;-70
2024/01/06 02:08:09;;;;;;;;;;;3.40;99.90;;;2.79;100.00;96810.53;5033852;28;2043;-70
2024/01/06 02:10:36;;;;;;;;;;;3.50;99.90;;;2.75;100.00;96801.22;5030821;28;2738;-71
2024/01/06 02:13:12;;;;;;;;;;;3.50;99.90;;;2.77;100.00;96804.59;5041696;28;2643;-68
2024/01/06 02:15:39;;;;;;;;;;;3.50;99.90;;;2.76;100.00;96790.97;5040983;28;1463;-71
2024/01/06 02:18:06;;;;;;;;;;;3.60;99.90;;;2.63;100.00;96790.41;5005667;28;1433;-70
2024/01/06 02:20:33;;;;;;;;;;;3.60;99.90;;;2.66;100.00;96798.00;5036343;28;1162;-71
2024/01/06 02:23:01;;;;;;;;;;;3.60;99.90;;;2.82;100.00;96795.91;5022047;28;1364;-70
2024/01/06 02:25:28;;;;;;;;;;;3.70;99.90;;;2.76;100.00;96801.22;5039627;28;2542;-71
2024/01/06 02:27:56;;;;;;;;;;;3.70;99.90;;;2.82;100.00;96811.28;5037037;28;2546;-70
2024/01/06 02:30:23;;;;;;;;;;;3.70;99.90;;;2.76;100.00;96814.03;5023102;28;1409;-71
2024/01/06 02:32:51;;;;;;;;;;;3.70;99.90;;;2.82;100.00;96824.09;5032404;28;1382;-70
2024/01/06 02:35:18;;;;;;;;;;;3.70;99.90;;;2.88;100.00;96813.72;5023844;28;1444;-70
2024/01/06 02:37:45;;;;;;;;;;;3.70;99.90;;;2.83;100.00;96813.00;5037878;28;1363;-71
2024/01/06 02:40:13;;;;;;;;;;;3.60;99.90;;;2.94;100.00;96810.13;5037756;28;1095;-71
2024/01/06 02:42:40;;;;;;;;;;;3.60;99.90;;;2.93;100.00;96811.03;5037700;28;3173;-70
2024/01/06 02:45:09;;;;;;;;;;;3.60;99.90;;;2.90;100.00;96809.38;5039722;28;2563;-70
2024/01/06 02:47:36;;;;;;;;;;;3.60;99.90;;;2.89;100.00;96811.97;5037933;28;1420;-70
2024/01/06 02:50:04;;;;;;;;;;;3.60;99.90;;;2.93;100.00;96811.03;5040567;28;1670;-69
2024/01/06 02:52:31;;;;;;;;;;;3.60;99.90;;;2.87;100.00;96814.59;5038096;28;1367;-70
2024/01/06 02:54:58;;;;;;;;;;;3.60;99.90;;;2.72;100.00;96807.28;5024965;28;1446;-70
2024/01/06 02:57:25;;;;;;;;;;;3.60;99.90;;;2.77;100.00;96815.69;5037860;28;2293;-69
2024/01/06 02:59:52;;;;;;;;;;;3.70;99.90;;;2.79;100.00;96811.38;5023443;28;1394;-71
2024/01/06 03:02:19;;;;;;;;;;;3.60;99.90;;;2.84;100.00;96824.06;5039581;28;1367;-71
2024/01/06 03:04:46;;;;;;;;;;;3.60;99.90;;;2.86;100.00;96823.16;5020392;28;1293;-70
2024/01/06 03:07:12;;;;;;;;;;;3.50;99.90;;;2.93;100.00;96821.28;5038018;28;1905;-70
2024/01/06 03:09:40;;;;;;;;;;;3.50;99.90;;;2.84;100.00;96821.50;5033504;28;1216;-70
2024/01/06 03:12:07;;;;;;;;;;;3.50;99.90;;;2.78;100.00;96835.31;5010054;28;2101;-72
2024/01/06 03:14:35;;;;;;;;;;;3.50;99.90;;;2.75;100.00;96843.06;5036354;28;1386;-70
2024/01/06 03:17:02;;;;;;;;;;;3.60;99.90;;;2.76;100.00;96837.09;5039469;28;1393;-70
2024/01/06 03:19:30;;;;;;;;;;;3.60;99.90;;;2.72;100.00;96841.41;5021918;28;1219;-70
2024/01/06 03:21:57;;;;;;;;;;;3.70;99.90;;;2.67;100.00;96845.81;5041752;28;1542;-70
2024/01/06 03:24:26;;;;;;;;;;;3.70;99.90;;;2.69;100.00;96838.06;5040753;28;1267;-69
2024/01/06 03:26:53;;;;;;;;;;;3.70;99.90;;;2.67;100.00;96845.81;5035363;28;3149;-70
2024/01/06 03:29:20;;;;;;;;;;;3.70;99.90;;;2.83;100.00;96838.63;5038036;28;1273;-70
2024/01/06 03:31:47;;;;;;;;;;;3.70;99.90;;;2.83;100.00;96837.75;5040126;28;1302;-70
2024/01/06 03:34:13;;;;;;;;;;;3.60;99.90;;;2.80;100.00;96835.28;5039080;28;1524;-71
2024/01/06 03:36:41;;;;;;;;;;;3.60;99.90;;;2.93;100.00;96842.63;5038263;28;1125;-70
2024/01/06 03:39:08;;;;;;;;;;;3.60;99.90;;;2.91;100.00;96835.84;5019848;28;1241;-71
2024/01/06 03:41:35;;;;;;;;;;;3.70;99.90;;;2.95;100.00;96829.78;5038264;28;1885;-70
2024/01/06 03:44:02;;;;;;;;;;;3.80;99.90;;;2.90;100.00;96834.19;5038171;28;1276;-70
2024/01/06 03:46:29;;;;;;;;;;;3.80;99.90;;;2.86;100.00;96830.00;5040614;28;1988;-70
2024/01/06 03:48:56;;;;;;;;;;;3.80;99.90;;;2.87;100.00;96829.13;5039793;28;1434;-70
2024/01/06 03:51:23;;;;;;;;;;;3.80;99.90;;;2.80;100.00;96845.53;5039167;28;1413;-71
2024/01/06 03:53:50;;;;;;;;;;;3.80;99.90;;;2.90;100.00;96845.28;5028496;28;1682;-70
2024/01/06 03:56:18;;;;;;;;;;;3.70;99.90;;;2.96;100.00;96841.72;5021726;28;2958;-71
2024/01/06 03:58:45;;;;;;;;;;;3.70;99.90;;;3.03;100.00;96847.53;5038830;28;1565;-71
2024/01/06 04:01:11;;;;;;;;;;;3.60;99.90;;;2.85;100.00;96838.56;5021030;28;1402;-70
2024/01/06 04:03:40;;;;;;;;;;;3.60;99.90;;;3.02;100.00;96851.81;5021212;28;1284;-71
2024/01/06 04:06:07;;;;;;;;;;;3.70;99.90;;;2.99;100.00;96841.66;5043277;28;3331;-71
2024/01/06 04:08:35;;;;;;;;;;;3.70;99.90;;;2.94;100.00;96838.34;5042975;28;3641;-69
2024/01/06 04:11:02;;;;;;;;;;;3.70;99.90;;;2.89;100.00;96841.00;5046670;28;2733;-69
2024/01/06 04:13:29;;;;;;;;;;;3.70;99.90;;;2.86;100.00;96830.00;5026935;28;1272;-72
2024/01/06 04:15:56;;;;;;;;;;;3.80;99.90;;;2.83;100.00;96828.38;5042410;28;1110;-68
2024/01/06 04:18:23;;;;;;;;;;;3.80;99.90;;;2.87;100.00;96847.94;5043568;28;1397;-71
2024/01/06 04:20:50;;;;;;;;;;;3.80;99.90;;;2.96;100.00;96846.00;5042224;28;1331;-71
2024/01/06 04:23:17;;;;;;;;;;;3.80;99.90;;;2.85;100.00;96843.69;5029736;28;2010;-70
2024/01/06 04:25:44;;;;;;;;;;;3.90;99.90;;;2.90;100.00;96842.72;5042024;28;1996;-71
2024/01/06 04:28:11;;;;;;;;;;;3.90;99.90;;;3.01;100.00;96846.72;5039046;28;1309;-70
2024/01/06 04:30:37;;;;;;;;;;;3.80;99.90;;;3.01;100.00;96847.59;5035611;28;1487;-70
2024/01/06 04:33:04;;;;;;;;;;;3.80;99.90;;;2.96;100.00;96844.28;5042569;28;1323;-70
2024/01/06 04:35:32;;;;;;;;;;;3.90;99.90;;;3.05;100.00;96854.31;5042888;28;1373;-70
2024/01/06 04:37:58;;;;;;;;;;;3.90;99.90;;;2.98;100.00;96847.66;5025806;28;2430;-70
2024/01/06 04:40:25;;;;;;;;;;;3.90;99.90;;;3.02;100.00;96859.53;5041374;28;1389;-70
2024/01/06 04:42:53;;;;;;;;;;;3.80;99.90;;;2.93;100.00;96849.50;5044374;28;2230;-70
2024/01/06 04:45:23;;;;;;;;;;;3.80;99.90;;;3.00;100.00;96858.72;5026519;28;1492;-69
2024/01/06 04:47:51;;;;;;;;;;;3.80;99.90;;;2.97;100.00;96845.13;5021978;28;1910;-69
2024/01/06 04:50:17;;;;;;;;;;;3.70;99.90;;;3.04;100.00;96852.63;5038688;28;1400;-71
2024/01/06 04:52:44;;;;;;;;;;;3.80;99.90;;;3.03;100.00;96858.63;5042637;28;1414;-70
2024/01/06 04:55:12;;;;;;;;;;;3.80;99.90;;;3.00;100.00;96851.03;5042236;28;1358;-70
2024/01/06 04:57:39;;;;;;;;;;;3.90;99.90;;;2.94;100.00;96858.84;5026548;28;1561;-70
2024/01/06 05:00:06;;;;;;;;;;;3.90;99.90;;;2.94;100.00;96853.72;5024612;28;1459;-70
2024/01/06 05:02:33;;;;;;;;;;;3.90;99.90;;;2.86;100.00;96850.50;5043411;28;1929;-70
2024/01/06 05:05:00;;;;;;;;;;;3.90;99.90;;;2.99;100.00;96845.91;5029385;28;3186;-70
2024/01/06 05:07:27;;;;;;;;;;;3.90;99.90;;;3.02;100.00;96856.94;5042795;28;1906;-71
2024/01/06 05:09:54;;;;;;;;;;;3.90;99.90;;;3.13;100.00;96859.28;5025607;28;1366;-70
2024/01/06 05:12:21;;;;;;;;;;;3.80;99.90;;;2.92;100.00;96860.63;5026407;28;1402;-68
2024/01/06 05:14:47;;;;;;;;;;;3.80;99.90;;;3.16;100.00;96866.03;5027579;28;1313;-68
2024/01/06 05:17:14;;;;;;;;;;;3.80;99.90;;;2.99;100.00;96862.16;5041157;28;1387;-69
2024/01/06 05:19:41;;;;;;;;;;;3.80;99.90;;;3.00;100.00;96871.53;5041467;28;2463;-71
2024/01/06 05:22:08;;;;;;;;;;;3.80;99.90;;;3.07;100.00;96867.94;5043270;28;1362;-70
2024/01/06 05:24:35;;;;;;;;;;;3.80;99.90;;;3.05;100.00;96872.25;5037929;28;1361;-71
2024/01/06 05:27:02;;;;;;;;;;;3.80;99.90;;;3.04;100.00;96875.72;5041514;28;1973;-70
2024/01/06 05:29:29;;;;;;;;;;;3.80;99.90;;;3.01;100.00;96875.78;5042709;28;1324;-70
2024/01/06 05:31:56;;;;;;;;;;;3.80;99.90;;;3.09;100.00;96871.31;5041884;28;1353;-70
2024/01/06 05:34:23;;;;;;;;;;;3.80;99.90;;;2.95;100.00;96872.53;5037811;28;2471;-69
2024/01/06 05:36:50;;;;;;;;;;;3.80;99.90;;;3.09;100.00;96871.31;5043642;28;1238;-69
2024/01/06 05:39:18;;;;;;;;;;;3.90;99.90;;;3.05;100.00;96872.25;5041872;28;1391;-70
2024/01/06 05:41:45;;;;;;;;;;;3.80;99.90;;;3.26;100.00;96876.03;5041217;28;1207;-71
2024/01/06 05:44:12;;;;;;;;;;;3.80;99.90;;;3.15;100.00;96878.03;5040137;28;1350;-70
2024/01/06 05:46:39;;;;;;;;;;;3.80;99.90;;;3.32;100.00;96869.91;5039659;28;3152;-70
2024/01/06 05:49:06;;;;;;;;;;;3.80;99.90;;;3.18;100.00;96877.09;5027719;28;2440;-71
2024/01/06 05:51:33;;;;;;;;;;;3.80;99.90;;;3.22;100.00;96874.44;5039118;28;2653;-70
2024/01/06 05:54:00;;;;;;;;;;;3.80;99.90;;;3.19;100.00;96881.34;5042889;28;1273;-70
2024/01/06 05:56:27;;;;;;;;;;;3.90;99.90;;;3.13;100.00;96885.75;5042853;28;1452;-71
2024/01/06 05:58:55;;;;;;;;;;;3.90;99.90;;;3.17;100.00;96888.22;5028515;28;1078;-70
2024/01/06 06:01:22;;;;;;;;;;;3.90;99.90;;;3.25;100.00;96882.03;5042298;28;1400;-70
2024/01/06 06:03:50;;;;;;;;;;;3.90;99.90;;;3.19;100.00;96882.16;5041466;28;1338;-70
2024/01/06 06:06:18;;;;;;;;;;;3.90;99.90;;;3.21;100.00;96895.81;5038736;28;2693;-70
2024/01/06 06:08:45;;;;;;;;;;;4.00;99.90;;;3.19;100.00;96889.88;5038143;28;1226;-70
2024/01/06 06:11:12;;;;;;;;;;;4.00;99.90;;;3.19;100.00;96896.72;5041859;28;2557;-71
2024/01/06 06:13:42;;;;;;;;;;;4.00;99.90;;;3.17;100.00;96896.78;5038575;28;1330;-70
2024/01/06 06:16:10;;;;;;;;;;;4.10;99.90;;;3.16;100.00;96897.66;5037794;28;1265;-69
2024/01/06 06:18:39;;;;;;;;;;;4.10;99.90;;;3.37;100.00;96905.69;5031363;28;1401;-71
2024/01/06 06:21:07;;;;;;;;;;;4.00;99.90;;;3.34;100.00;96904.88;5042033;28;1094;-70
2024/01/06 06:23:35;;;;;;;;;;;4.00;99.90;;;3.33;100.00;96910.03;5042429;28;1267;-71
2024/01/06 06:26:06;;;;;;;;;;;4.10;99.90;;;3.27;100.00;96911.06;5038712;28;3088;-70
2024/01/06 06:28:34;;;;;;;;;;;4.20;99.90;;;3.23;100.00;96917.13;5039557;28;2527;-69
2024/01/06 06:31:04;;;;;;;;;;;4.20;99.90;;;3.40;100.00;96921.00;5040591;28;1377;-70
2024/01/06 06:33:33;;;;;;;;;;;4.10;99.90;;;3.25;100.00;96928.19;5042591;28;1643;-71
2024/01/06 06:36:01;;;;;;;;;;;4.10;99.90;;;3.38;100.00;96926.19;5044669;28;1370;-70
2024/01/06 06:38:28;;;;;;;;;;;4.20;99.90;;;3.17;100.00;96931.81;5033768;28;2057;-70
2024/01/06 06:40:56;;;;;;;;;;;4.10;99.90;;;3.21;100.00;96938.56;5024855;28;1177;-69
2024/01/06 06:43:23;;;;;;;;;;;4.10;99.90;;;3.09;100.00;96932.84;5042359;28;2312;-70
2024/01/06 06:45:50;;;;;;;;;;;4.10;99.90;;;3.09;100.00;96929.44;5024845;28;1785;-70
2024/01/06 06:48:17;;;;;;;;;;;4.10;99.90;;;3.06;100.00;96943.19;5038518;28;1985;-71
2024/01/06 06:50:44;;;;;;;;;;;4.10;99.90;;;3.11;100.00;96953.34;5040635;28;1400;-69
2024/01/06 06:53:12;;;;;;;;;;;4.10;99.90;;;3.14;100.00;96956.66;5034031;28;1452;-70
2024/01/06 06:55:40;;;;;;;;;;;4.10;99.90;;;3.21;100.00;96964.22;5038660;28;1340;-70
2024/01/06 06:58:08;;;;;;;;;;;4.10;99.90;;;3.10;100.00;96969.56;5040452;28;2003;-70
2024/01/06 07:00:35;;;;;;;;;;;4.10;99.90;;;3.17;100.00;96968.59;5038884;28;1386;-70
2024/01/06 07:03:02;;;;;;;;;;;4.10;99.90;;;3.19;100.00;96973.66;5041020;28;1471;-70
2024/01/06 07:05:29;;;;;;;;;;;4.10;99.90;;;3.21;100.00;96974.47;5040110;28;1499;-69
2024/01/06 07:07:57;;;;;;;;;;;4.00;99.90;;;3.30;100.00;96977.66;5041775;28;1985;-71
2024/01/06 07:10:24;;;;;;;;;;;4.00;99.90;;;3.31;100.00;96979.38;5040044;28;1106;-70
2024/01/06 07:12:51;;;;;;;;;;;4.00;99.90;;;3.34;100.00;96981.00;5030037;28;3246;-70
2024/01/06 07:15:18;;;;;;;;;;;4.10;99.90;;;3.20;100.00;96983.91;5021846;28;1399;-69
2024/01/06 07:17:45;;;;;;;;;;;4.10;99.90;;;3.37;100.00;96982.66;5024771;28;1164;-72
2024/01/06 07:20:12;;;;;;;;;;;4.10;99.90;;;3.37;100.00;96986.06;5042805;28;1125;-68
2024/01/06 07:22:39;;;;;;;;;;;4.10;99.90;;;3.27;100.00;96982.88;5039876;28;1826;-70
2024/01/06 07:25:07;;;;;;;;;;;4.10;99.90;;;3.24;100.00;96988.09;5038781;28;1245;-70
2024/01/06 07:27:37;;;;;;;;;;;4.10;99.90;;;3.23;100.00;96990.66;5039166;28;1926;-68
2024/01/06 07:30:04;;;;;;;;;;;4.10;99.90;;;3.29;100.00;96996.50;5039022;28;1288;-69
2024/01/06 07:32:33;;;;;;;;;;;4.00;99.90;;;3.38;100.00;96999.75;5039374;28;1385;-69
2024/01/06 07:35:00;;;;;;;;;;;4.10;99.90;;;3.34;100.00;96994.66;5040434;28;1403;-70
2024/01/06 07:37:33;;;;;;;;;;;4.10;99.90;;;3.42;100.00;97004.78;5043224;28;1129;-71
2024/01/06 07:40:02;;;;;;;;;;;4.10;99.90;;;3.43;100.00;97008.19;5038115;28;2036;-70
2024/01/06 07:42:32;;;;;;;;;;;4.00;99.90;;;3.38;100.00;97010.84;5042169;28;1413;-69
2024/01/06 07:44:58;;;;;;;;;;;4.10;99.90;;;3.44;100.00;97017.53;5039521;28;1384;-70
2024/01/06 07:47:26;;;;;;;;;;;4.20;99.90;;;3.46;100.00;97013.22;5023448;28;1902;-68
2024/01/06 07:49:53;;;;;;;;;;;4.30;99.90;;;3.68;100.00;97016.97;5037180;28;1432;-68
2024/01/06 07:52:20;;;;;;;;;;;4.30;99.90;;;3.52;100.00;97028.47;5038271;28;1652;-70
2024/01/06 07:54:48;;;;;;;;;;;4.30;99.90;;;3.59;100.00;97027.47;5041216;28;3431;-70
2024/01/06 07:57:15;;;;;;;;;;;4.40;99.90;;;3.52;100.00;97028.47;5039165;28;1405;-70
2024/01/06 07:59:42;;;;;;;;;;;4.30;99.90;;;3.55;100.00;97033.53;5038141;28;1239;-70
2024/01/06 08:02:09;;;;;;;;;;;4.30;99.90;;;3.42;100.00;97035.56;5040135;28;1395;-70
2024/01/06 08:04:36;;;;;;;;;;;4.30;99.90;;;3.63;100.00;97038.50;5038154;28;1082;-71
2024/01/06 08:07:03;;;;;;;;;;;4.30;99.90;;;3.68;100.00;97039.22;5019407;28;2713;-69
2024/01/06 08:09:30;;;;;;;;;;;4.20;99.90;;;3.64;100.00;97043.59;5023040;28;2806;-68
2024/01/06 08:11:58;;;;;;;;;;;;;;;3.64;100.00;97038.44;5023290;28;1481;-70
2024/01/06 08:14:25;;;;;;;;;;;4.20;99.90;;;3.54;100.00;97039.56;5012002;28;1685;-69
2024/01/06 08:16:52;;;;;;;;;;;4.30;99.90;;;3.59;100.00;97037.72;5038624;28;1337;-70
2024/01/06 08:19:19;;;;;;;;;;;4.30;99.90;;;3.63;100.00;97049.59;5037103;28;1349;-68
2024/01/06 08:21:47;;;;;;;;;;;4.20;99.90;;;3.71;100.00;97041.72;5039965;28;1999;-70
2024/01/06 08:24:14;;;;;;;;;;;4.30;99.90;;;3.81;100.00;97044.91;5036112;28;2682;-70
2024/01/06 08:26:40;;;;;;;;;;;4.30;99.90;;;3.72;100.00;97043.41;5036254;28;1997;-70
2024/01/06 08:29:07;;;;;;;;;;;4.40;99.90;;;3.81;100.00;97057.72;5037666;28;1469;-70
2024/01/06 08:31:34;;;;;;;;;;;4.40;99.90;;;3.66;100.00;97057.22;5041179;28;1091;-70
2024/01/06 08:34:01;;;;;;;;;;;4.40;99.90;;;3.59;100.00;97048.00;5042959;28;1310;-69
2024/01/06 08:36:28;;;;;;;;;;;4.50;99.90;;;3.58;100.00;97054.00;5040964;28;3032;-70
2024/01/06 08:38:55;;;;;;;;;;;4.50;99.90;;;3.48;100.00;97049.97;5040367;28;2304;-71
2024/01/06 08:41:22;;;;;;;;;;;4.40;99.90;;;3.56;100.00;97056.59;5024437;28;1290;-71
2024/01/06 08:43:49;;;;;;;;;;;4.50;99.90;;;3.63;100.00;97053.91;5029231;28;1264;-68
2024/01/06 08:46:16;;;;;;;;;;;4.40;99.90;;;3.63;100.00;97064.16;5034435;28;1098;-69
2024/01/06 08:48:43;;;;;;;;;;;4.40;99.90;;;3.78;100.00;97067.19;5033301;28;1899;-69
2024/01/06 08:51:13;;;;;;;;;;;4.40;99.90;;;3.77;100.00;97072.38;5023106;28;1964;-69
2024/01/06 08:53:41;;;;;;;;;;;4.40;99.90;;;3.94;100.00;97070.22;5042608;28;2520;-70
2024/01/06 08:56:09;;;;;;;;;;;4.40;99.90;;;3.89;100.00;97063.53;5039811;28;1176;-71
2024/01/06 08:58:35;;;;;;;;;;;4.60;99.90;;;3.90;100.00;97068.66;5043454;28;1310;-69
2024/01/06 09:01:02;;;;;;;;;;;4.60;99.90;;;4.00;100.00;97071.81;5044994;28;1135;-70
2024/01/06 09:03:29;;;;;;;;;;;4.70;99.90;;;4.01;100.00;97070.94;5031317;28;1366;-70
2024/01/06 09:06:00;;;;;;;;;;;4.80;99.90;;;4.16;100.00;97073.13;5043005;28;2101;-70
2024/01/06 09:08:26;;;;;;;;;;;4.80;99.90;;;4.16;100.00;97077.44;5043532;28;1898;-70
2024/01/06 09:10:58;;;;;;;;;;;4.90;99.90;;;4.18;100.00;97073.94;5040611;28;1447;-70
2024/01/06 09:13:25;;;;;;;;;;;4.90;99.90;;;4.35;100.00;97078.63;5042144;28;1371;-70
2024/01/06 09:15:52;;;;;;;;;;;4.90;99.90;;;4.21;100.00;97075.56;5042796;28;1286;-70
2024/01/06 09:18:19;;;;;;;;;;;5.00;99.90;;;4.21;100.00;97085.00;5021533;28;1286;-69
2024/01/06 09:20:47;;;;;;;;;;;4.90;99.90;;;4.36;100.00;97077.75;5040959;28;3196;-70
2024/01/06 09:23:15;;;;;;;;;;;5.00;99.90;;;4.48;100.00;97089.44;5040099;28;1336;-70
2024/01/06 09:25:42;;;;;;;;;;;5.10;99.90;;;4.43;100.00;97086.16;5044674;28;1334;-71
2024/01/06 09:28:10;;;;;;;;;;;5.20;99.90;;;4.51;100.00;97086.78;5037411;28;1960;-71
2024/01/06 09:30:37;;;;;;;;;;;5.20;99.90;;;4.43;100.00;97091.28;5041332;28;1349;-71
2024/01/06 09:33:04;;;;;;;;;;;5.20;99.90;;;4.61;100.00;97085.66;5043977;28;1996;-70
2024/01/06 09:35:32;;;;;;;;;;;5.20;99.90;;;4.44;100.00;97087.00;5037254;28;2701;-69
2024/01/06 09:37:59;;;;;;;;;;;5.20;99.90;;;4.42;100.00;97097.31;5040736;28;1317;-70
2024/01/06 09:40:26;;;;;;;;;;;5.10;99.90;;;4.33;100.00;97092.41;5043989;28;1423;-71
2024/01/06 09:42:54;;;;;;;;;;;5.10;99.90;;;4.50;100.00;97099.69;5042511;28;1276;-71
2024/01/06 09:45:21;;;;;;;;;;;5.20;99.90;;;4.40;100.00;97104.22;5043174;28;1319;-70
2024/01/06 09:47:50;;;;;;;;;;;5.20;99.90;;;4.44;100.00;97110.13;5037773;28;1963;-70
2024/01/06 09:50:20;;;;;;;;;;;5.20;99.90;;;4.59;100.00;97118.28;5012866;28;2141;-70
2024/01/06 09:52:55;;;;;;;;;;;5.10;99.90;;;4.45;100.00;97122.06;5006487;28;1436;-70
2024/01/06 09:55:26;;;;;;;;;;;5.10;99.90;;;4.44;100.00;97121.25;4996857;28;1401;-70
2024/01/06 09:57:53;;;;;;;;;;;5.10;99.90;;;4.54;100.00;97111.59;5035353;28;1234;-71
2024/01/06 10:00:21;;;;;;;;;;;5.20;99.90;;;4.63;100.00;97125.91;5042782;28;1098;-70
2024/01/06 10:02:51;;;;;;;;;;;5.20;99.90;;;4.60;100.00;97119.94;5035882;28;3491;-70
2024/01/06 10:05:18;;;;;;;;;;;5.20;99.90;;;4.50;100.00;97121.09;5042711;28;1138;-70
2024/01/06 10:07:45;;;;;;;;;;;5.20;99.90;;;4.55;100.00;97119.25;5039989;28;1970;-70
2024/01/06 10:10:12;;;;;;;;;;;5.20;99.90;;;4.49;100.00;97118.56;5024222;28;2654;-69
2024/01/06 10:12:40;;;;;;;;;;;5.30;99.90;;;4.46;100.00;97124.63;5019940;28;1394;-70
2024/01/06 10:15:09;;;;;;;;;;;5.40;99.90;;;4.44;100.00;97120.41;5024167;28;2812;-70
2024/01/06 10:17:37;;;;;;;;;;;5.30;99.90;;;4.59;100.00;97120.84;5022843;28;1481;-70
2024/01/06 10:20:09;;;;;;;;;;;5.30;99.90;;;4.71;100.00;97116.28;5023511;28;1318;-71
2024/01/06 10:22:37;;;;;;;;;;;5.30;99.90;;;4.79;100.00;97122.91;5039887;28;1655;-71
2024/01/06 10:25:09;;;;;;;;;;;5.20;99.90;;;4.72;100.00;97126.53;5022715;28;1472;-70
2024/01/06 10:27:36;;;;;;;;;;;5.30;99.90;;;4.67;100.00;97125.78;5038642;28;1974;-70
2024/01/06 10:30:04;;;;;;;;;;;5.30;99.90;;;4.65;100.00;97121.56;5021274;28;1386;-69
2024/01/06 10:32:32;;;;;;;;;;;5.40;99.90;;;4.62;100.00;97119.94;5022937;28;1371;-70
2024/01/06 10:35:03;;;;;;;;;;;5.30;99.90;;;4.61;100.00;97113.94;5039608;28;1999;-68
2024/01/06 10:37:30;;;;;;;;;;;5.40;99.90;;;4.79;100.00;97114.34;5037770;28;1024;-70
2024/01/06 10:40:08;;;;;;;;;;;5.30;99.90;;;4.83;100.00;97118.50;5021127;28;1172;-70
2024/01/06 10:42:36;;;;;;;;;;;5.30;99.90;;;4.79;100.00;97115.19;5023107;28;3308;-69
2024/01/06 10:45:04;;;;;;;;;;;5.20;99.90;;;4.70;100.00;97114.56;5035962;28;961;-69
2024/01/06 10:47:31;;;;;;;;;;;5.30;99.90;;;4.73;100.00;97110.19;5021360;28;2652;-70
2024/01/06 10:49:59;;;;;;;;;;;5.30;99.90;;;4.92;100.00;97114.84;5037005;28;1584;-69
2024/01/06 10:52:28;;;;;;;;;;;5.40;99.90;;;4.79;100.00;97112.63;5042729;28;1399;-70
2024/01/06 10:54:55;;;;;;;;;;;5.40;99.90;;;5.02;100.00;97108.56;5019669;28;2117;-70
2024/01/06 10:57:23;;;;;;;;;;;5.50;99.90;;;5.00;100.00;97106.03;5014274;28;2305;-71
2024/01/06 10:59:52;;;;;;;;;;;5.50;99.90;;;4.92;100.00;97109.69;5030843;28;1238;-70
2024/01/06 11:02:19;;;;;;;;;;;5.50;99.90;;;4.98;100.00;97104.41;5017521;28;1951;-67
2024/01/06 11:04:47;;;;;;;;;;;5.50;99.90;;;5.01;100.00;97105.13;5005455;28;1492;-71
2024/01/06 11:07:21;;;;;;;;;;;5.60;99.90;;;5.11;100.00;97092.00;5030326;28;1431;-68
2024/01/06 11:09:55;;;;;;;;;;;5.60;99.90;;;5.13;100.00;97090.25;5006986;28;1026;-70
2024/01/06 11:12:22;;;;;;;;;;;5.70;99.90;;;5.11;100.00;97081.72;5028482;28;2092;-70
2024/01/06 11:14:52;;;;;;;;;;;5.70;99.90;;;5.19;100.00;97074.63;5012050;28;1468;-70
2024/01/06 11:17:58;;;;;;;;;;;5.80;99.90;;;5.65;100.00;97070.66;5026727;28;1540;-70
2024/01/06 11:20:26;;;;;;;;;;;5.90;99.90;;;5.49;100.00;97062.56;5039186;28;1593;-69
2024/01/06 11:22:54;;;;;;;;;;;5.90;99.90;;;5.59;100.00;97058.84;5036498;28;1478;-69
2024/01/06 11:25:21;;;;;;;;;;;6.00;99.90;;;5.54;100.00;97055.59;5021616;28;3163;-70
2024/01/06 11:27:49;;;;;;;;;;;5.90;99.90;;;5.52;100.00;97051.34;5019246;28;1997;-71
2024/01/06 11:30:28;;;;;;;;;;;6.00;99.90;;;5.42;100.00;97045.63;5021507;28;1134;-69
2024/01/06 11:32:58;;;;;;;;;;;;;;;5.32;100.00;97044.25;5041574;28;1470;-69
2024/01/06 11:35:27;;;;;;;;;;;6.10;99.90;;;5.24;100.00;97047.03;5022778;28;1052;-70